sensor_id;sensor_type;location;lat;lon;timestamp;temperature;humidity
38380;DHT22;38377;47.418;18.882;2023-12-28T00:02:21;1.40;99.90
38380;DHT22;38377;47.418;18.882;2023-12-28T00:04:47;1.40;99.90
38380;DHT22;38377;47.418;18.882;2023-12-28T00:07:12;1.40;99.90
38380;DHT22;38377;47.418;18.882;2023-12-28T00:09:38;1.30;99.90
38380;DHT22;38377;47.418;18.882;2023-12-28T00:12:04;1.30;99.90
38380;DHT22;38377;47.418;18.882;2023-12-28T00:14:30;1.40;99.90
38380;DHT22;38377;47.418;18.882;2023-12-28T00:16:56;1.40;99.90
38380;DHT22;38377;47.418;18.882;2023-12-28T00:19:22;1.40;99.90
38380;DHT22;38377;47.418;18.882;2023-12-28T00:21:47;1.40;99.90
38380;DHT22;38377;47.418;18.882;2023-12-28T00:24:15;1.40;99.90
38380;DHT22;38377;47.418;18.882;2023-12-28T00:26:40;1.30;99.90
38380;DHT22;38377;47.418;18.882;2023-12-28T00:29:06;1.20;99.90
38380;DHT22;38377;47.418;18.882;2023-12-28T00:31:31;1.20;99.90
38380;DHT22;38377;47.418;18.882;2023-12-28T00:33:57;1.20;99.90
38380;DHT22;38377;47.418;18.882;2023-12-28T00:36:22;1.20;99.90
38380;DHT22;38377;47.418;18.882;2023-12-28T00:38:48;1.10;99.90
38380;DHT22;38377;47.418;18.882;2023-12-28T00:41:14;1.10;99.90
38380;DHT22;38377;47.418;18.882;2023-12-28T00:43:39;1.10;99.90
38380;DHT22;38377;47.418;18.882;2023-12-28T00:46:05;1.10;99.90
38380;DHT22;38377;47.418;18.882;2023-12-28T00:48:31;1.10;99.90
38380;DHT22;38377;47.418;18.882;2023-12-28T00:50:56;1.20;99.90
38380;DHT22;38377;47.418;18.882;2023-12-28T00:53:25;1.10;99.90
38380;DHT22;38377;47.418;18.882;2023-12-28T00:55:50;1.10;99.90
38380;DHT22;38377;47.418;18.882;2023-12-28T00:58:16;1.10;99.90
38380;DHT22;38377;47.418;18.882;2023-12-28T01:00:41;1.00;99.90
38380;DHT22;38377;47.418;18.882;2023-12-28T01:03:07;1.00;99.90
38380;DHT22;38377;47.418;18.882;2023-12-28T01:05:32;1.10;99.90
38380;DHT22;38377;47.418;18.882;2023-12-28T01:07:58;1.10;99.90
38380;DHT22;38377;47.418;18.882;2023-12-28T01:10:24;1.10;99.90
38380;DHT22;38377;47.418;18.882;2023-12-28T01:12:49;1.10;99.90
38380;DHT22;38377;47.418;18.882;2023-12-28T01:15:15;1.00;99.90
38380;DHT22;38377;47.418;18.882;2023-12-28T01:17:43;1.00;99.90
38380;DHT22;38377;47.418;18.882;2023-12-28T01:20:09;1.00;99.90
38380;DHT22;38377;47.418;18.882;2023-12-28T01:22:35;1.00;99.90
38380;DHT22;38377;47.418;18.882;2023-12-28T01:25:00;1.00;99.90
38380;DHT22;38377;47.418;18.882;2023-12-28T01:27:26;1.00;99.90
38380;DHT22;38377;47.418;18.882;2023-12-28T01:29:51;0.90;99.90
38380;DHT22;38377;47.418;18.882;2023-12-28T01:32:17;0.90;99.90
38380;DHT22;38377;47.418;18.882;2023-12-28T01:34:43;0.90;99.90
38380;DHT22;38377;47.418;18.882;2023-12-28T01:37:08;0.90;99.90
38380;DHT22;38377;47.418;18.882;2023-12-28T01:39:34;0.90;99.90
38380;DHT22;38377;47.418;18.882;2023-12-28T01:41:59;1.00;99.90
38380;DHT22;38377;47.418;18.882;2023-12-28T01:44:25;1.00;99.90
38380;DHT22;38377;47.418;18.882;2023-12-28T01:46:50;0.90;99.90
38380;DHT22;38377;47.418;18.882;2023-12-28T01:49:17;0.90;99.90
38380;DHT22;38377;47.418;18.882;2023-12-28T01:51:42;0.90;99.90
38380;DHT22;38377;47.418;18.882;2023-12-28T01:54:09;0.90;99.90
38380;DHT22;38377;47.418;18.882;2023-12-28T01:56:35;0.80;99.90
38380;DHT22;38377;47.418;18.882;2023-12-28T01:59:01;0.80;99.90
38380;DHT22;38377;47.418;18.882;2023-12-28T02:01:27;0.80;99.90
38380;DHT22;38377;47.418;18.882;2023-12-28T02:03:54;0.80;99.90
38380;DHT22;38377;47.418;18.882;2023-12-28T02:06:22;0.80;99.90
38380;DHT22;38377;47.418;18.882;2023-12-28T02:08:48;0.80;99.90
38380;DHT22;38377;47.418;18.882;2023-12-28T02:11:14;0.80;99.90
38380;DHT22;38377;47.418;18.882;2023-12-28T02:13:40;0.80;99.90
38380;DHT22;38377;47.418;18.882;2023-12-28T02:16:20;0.80;99.90
38380;DHT22;38377;47.418;18.882;2023-12-28T02:18:50;0.80;99.90
38380;DHT22;38377;47.418;18.882;2023-12-28T02:21:17;0.80;99.90
38380;DHT22;38377;47.418;18.882;2023-12-28T02:23:49;0.80;99.90
38380;DHT22;38377;47.418;18.882;2023-12-28T02:26:18;0.80;99.90
38380;DHT22;38377;47.418;18.882;2023-12-28T02:28:45;0.80;99.90
38380;DHT22;38377;47.418;18.882;2023-12-28T02:31:19;0.90;99.90
38380;DHT22;38377;47.418;18.882;2023-12-28T02:33:54;0.90;99.90
38380;DHT22;38377;47.418;18.882;2023-12-28T02:36:23;0.90;99.90
38380;DHT22;38377;47.418;18.882;2023-12-28T02:38:51;0.90;99.90
38380;DHT22;38377;47.418;18.882;2023-12-28T02:41:18;0.90;99.90
38380;DHT22;38377;47.418;18.882;2023-12-28T02:43:44;0.90;99.90
38380;DHT22;38377;47.418;18.882;2023-12-28T02:46:11;0.80;99.90
38380;DHT22;38377;47.418;18.882;2023-12-28T02:48:37;0.90;99.90
38380;DHT22;38377;47.418;18.882;2023-12-28T02:51:03;0.90;99.90
38380;DHT22;38377;47.418;18.882;2023-12-28T02:53:29;0.90;99.90
38380;DHT22;38377;47.418;18.882;2023-12-28T02:55:54;0.80;99.90
38380;DHT22;38377;47.418;18.882;2023-12-28T02:58:20;0.80;99.90
38380;DHT22;38377;47.418;18.882;2023-12-28T03:00:46;0.80;99.90
38380;DHT22;38377;47.418;18.882;2023-12-28T03:03:12;0.80;99.90
38380;DHT22;38377;47.418;18.882;2023-12-28T03:05:37;0.70;99.90
38380;DHT22;38377;47.418;18.882;2023-12-28T03:08:03;0.70;99.90
38380;DHT22;38377;47.418;18.882;2023-12-28T03:10:29;0.70;99.90
38380;DHT22;38377;47.418;18.882;2023-12-28T03:12:54;0.80;99.90
38380;DHT22;38377;47.418;18.882;2023-12-28T03:15:20;0.70;99.90
38380;DHT22;38377;47.418;18.882;2023-12-28T03:17:46;0.70;99.90
38380;DHT22;38377;47.418;18.882;2023-12-28T03:20:12;0.70;99.90
38380;DHT22;38377;47.418;18.882;2023-12-28T03:22:37;0.70;99.90
38380;DHT22;38377;47.418;18.882;2023-12-28T03:25:03;0.60;99.90
38380;DHT22;38377;47.418;18.882;2023-12-28T03:27:29;0.60;99.90
38380;DHT22;38377;47.418;18.882;2023-12-28T03:29:55;0.60;99.90
38380;DHT22;38377;47.418;18.882;2023-12-28T03:32:20;0.60;99.90
38380;DHT22;38377;47.418;18.882;2023-12-28T03:34:46;0.60;99.90
38380;DHT22;38377;47.418;18.882;2023-12-28T03:37:11;0.50;99.90
38380;DHT22;38377;47.418;18.882;2023-12-28T03:39:37;0.60;99.90
38380;DHT22;38377;47.418;18.882;2023-12-28T03:42:03;0.60;99.90
38380;DHT22;38377;47.418;18.882;2023-12-28T03:44:28;0.60;99.90
38380;DHT22;38377;47.418;18.882;2023-12-28T03:46:54;0.60;99.90
38380;DHT22;38377;47.418;18.882;2023-12-28T03:49:20;0.60;99.90
38380;DHT22;38377;47.418;18.882;2023-12-28T03:51:47;0.60;99.90
38380;DHT22;38377;47.418;18.882;2023-12-28T03:54:16;0.50;99.90
38380;DHT22;38377;47.418;18.882;2023-12-28T03:56:42;0.50;99.90
38380;DHT22;38377;47.418;18.882;2023-12-28T03:59:09;0.50;99.90
38380;DHT22;38377;47.418;18.882;2023-12-28T04:01:35;0.50;99.90
38380;DHT22;38377;47.418;18.882;2023-12-28T04:04:01;0.50;99.90
38380;DHT22;38377;47.418;18.882;2023-12-28T04:06:26;0.50;99.90
38380;DHT22;38377;47.418;18.882;2023-12-28T04:08:55;0.60;99.90
38380;DHT22;38377;47.418;18.882;2023-12-28T04:11:21;0.60;99.90
38380;DHT22;38377;47.418;18.882;2023-12-28T04:13:46;0.60;99.90
38380;DHT22;38377;47.418;18.882;2023-12-28T04:16:15;0.60;99.90
38380;DHT22;38377;47.418;18.882;2023-12-28T04:18:42;0.60;99.90
38380;DHT22;38377;47.418;18.882;2023-12-28T04:21:12;0.60;99.90
38380;DHT22;38377;47.418;18.882;2023-12-28T04:23:38;0.60;99.90
38380;DHT22;38377;47.418;18.882;2023-12-28T04:26:05;0.60;99.90
38380;DHT22;38377;47.418;18.882;2023-12-28T04:28:30;0.60;99.90
38380;DHT22;38377;47.418;18.882;2023-12-28T04:30:56;0.60;99.90
38380;DHT22;38377;47.418;18.882;2023-12-28T04:33:22;0.60;99.90
38380;DHT22;38377;47.418;18.882;2023-12-28T04:35:47;0.50;99.90
38380;DHT22;38377;47.418;18.882;2023-12-28T04:38:13;0.50;99.90
38380;DHT22;38377;47.418;18.882;2023-12-28T04:40:39;0.40;99.90
38380;DHT22;38377;47.418;18.882;2023-12-28T04:43:04;0.40;99.90
38380;DHT22;38377;47.418;18.882;2023-12-28T04:45:31;0.40;99.90
38380;DHT22;38377;47.418;18.882;2023-12-28T04:47:57;0.40;99.90
38380;DHT22;38377;47.418;18.882;2023-12-28T04:50:22;0.40;99.90
38380;DHT22;38377;47.418;18.882;2023-12-28T04:52:48;0.40;99.90
38380;DHT22;38377;47.418;18.882;2023-12-28T04:55:14;0.40;99.90
38380;DHT22;38377;47.418;18.882;2023-12-28T04:57:41;0.40;99.90
38380;DHT22;38377;47.418;18.882;2023-12-28T05:00:09;0.40;99.90
38380;DHT22;38377;47.418;18.882;2023-12-28T05:02:35;0.40;99.90
38380;DHT22;38377;47.418;18.882;2023-12-28T05:05:01;0.30;99.90
38380;DHT22;38377;47.418;18.882;2023-12-28T05:07:27;0.30;99.90
38380;DHT22;38377;47.418;18.882;2023-12-28T05:09:52;0.30;99.90
38380;DHT22;38377;47.418;18.882;2023-12-28T05:12:18;0.30;99.90
38380;DHT22;38377;47.418;18.882;2023-12-28T05:14:43;0.30;99.90
38380;DHT22;38377;47.418;18.882;2023-12-28T05:17:09;0.30;99.90
38380;DHT22;38377;47.418;18.882;2023-12-28T05:19:35;0.30;99.90
38380;DHT22;38377;47.418;18.882;2023-12-28T05:22:00;0.40;99.90
38380;DHT22;38377;47.418;18.882;2023-12-28T05:24:32;0.40;99.90
38380;DHT22;38377;47.418;18.882;2023-12-28T05:26:57;0.50;99.90
38380;DHT22;38377;47.418;18.882;2023-12-28T05:29:23;0.50;99.90
38380;DHT22;38377;47.418;18.882;2023-12-28T05:31:49;0.50;99.90
38380;DHT22;38377;47.418;18.882;2023-12-28T05:34:14;0.50;99.90
38380;DHT22;38377;47.418;18.882;2023-12-28T05:36:40;0.50;99.90
38380;DHT22;38377;47.418;18.882;2023-12-28T05:39:07;0.50;99.90
38380;DHT22;38377;47.418;18.882;2023-12-28T05:41:34;0.50;99.90
38380;DHT22;38377;47.418;18.882;2023-12-28T05:44:00;0.60;99.90
38380;DHT22;38377;47.418;18.882;2023-12-28T05:46:26;0.60;99.90
38380;DHT22;38377;47.418;18.882;2023-12-28T05:48:51;0.50;99.90
38380;DHT22;38377;47.418;18.882;2023-12-28T05:51:17;0.60;99.90
38380;DHT22;38377;47.418;18.882;2023-12-28T05:53:44;0.50;99.90
38380;DHT22;38377;47.418;18.882;2023-12-28T05:56:09;0.50;99.90
38380;DHT22;38377;47.418;18.882;2023-12-28T05:58:35;0.50;99.90
38380;DHT22;38377;47.418;18.882;2023-12-28T06:01:02;0.40;99.90
38380;DHT22;38377;47.418;18.882;2023-12-28T06:03:32;0.50;99.90
38380;DHT22;38377;47.418;18.882;2023-12-28T06:05:58;0.40;99.90
38380;DHT22;38377;47.418;18.882;2023-12-28T06:08:24;0.30;99.90
38380;DHT22;38377;47.418;18.882;2023-12-28T06:10:51;0.20;99.90
38380;DHT22;38377;47.418;18.882;2023-12-28T06:13:17;0.20;99.90
38380;DHT22;38377;47.418;18.882;2023-12-28T06:15:42;0.20;99.90
38380;DHT22;38377;47.418;18.882;2023-12-28T06:18:09;0.10;99.90
38380;DHT22;38377;47.418;18.882;2023-12-28T06:20:34;0.10;99.90
38380;DHT22;38377;47.418;18.882;2023-12-28T06:23:01;0.10;99.90
38380;DHT22;38377;47.418;18.882;2023-12-28T06:25:27;0.10;99.90
38380;DHT22;38377;47.418;18.882;2023-12-28T06:27:52;0.10;99.90
38380;DHT22;38377;47.418;18.882;2023-12-28T06:30:18;0.00;99.90
38380;DHT22;38377;47.418;18.882;2023-12-28T06:32:43;0.00;99.90
38380;DHT22;38377;47.418;18.882;2023-12-28T06:35:09;0.00;99.90
38380;DHT22;38377;47.418;18.882;2023-12-28T06:37:35;0.00;99.90
38380;DHT22;38377;47.418;18.882;2023-12-28T06:40:00;0.00;99.90
38380;DHT22;38377;47.418;18.882;2023-12-28T06:42:26;0.00;99.90
38380;DHT22;38377;47.418;18.882;2023-12-28T06:44:52;0.00;99.90
38380;DHT22;38377;47.418;18.882;2023-12-28T06:47:18;0.10;99.90
38380;DHT22;38377;47.418;18.882;2023-12-28T06:49:44;0.10;99.90
38380;DHT22;38377;47.418;18.882;2023-12-28T06:52:13;0.20;99.90
38380;DHT22;38377;47.418;18.882;2023-12-28T06:54:39;0.20;99.90
38380;DHT22;38377;47.418;18.882;2023-12-28T06:57:04;0.20;99.90
38380;DHT22;38377;47.418;18.882;2023-12-28T06:59:30;0.20;99.90
38380;DHT22;38377;47.418;18.882;2023-12-28T07:01:56;0.20;99.90
38380;DHT22;38377;47.418;18.882;2023-12-28T07:04:21;0.30;99.90
38380;DHT22;38377;47.418;18.882;2023-12-28T07:06:47;0.30;99.90
38380;DHT22;38377;47.418;18.882;2023-12-28T07:09:13;0.40;99.90
38380;DHT22;38377;47.418;18.882;2023-12-28T07:11:39;0.40;99.90
38380;DHT22;38377;47.418;18.882;2023-12-28T07:14:04;0.50;99.90
38380;DHT22;38377;47.418;18.882;2023-12-28T07:16:30;0.60;99.90
38380;DHT22;38377;47.418;18.882;2023-12-28T07:18:57;0.70;99.90
38380;DHT22;38377;47.418;18.882;2023-12-28T07:21:23;0.80;99.90
38380;DHT22;38377;47.418;18.882;2023-12-28T07:23:49;0.80;99.90
38380;DHT22;38377;47.418;18.882;2023-12-28T07:26:17;0.90;99.90
38380;DHT22;38377;47.418;18.882;2023-12-28T07:28:44;0.90;99.90
38380;DHT22;38377;47.418;18.882;2023-12-28T07:31:25;1.00;99.90
38380;DHT22;38377;47.418;18.882;2023-12-28T07:33:52;1.10;99.90
38380;DHT22;38377;47.418;18.882;2023-12-28T07:36:18;1.10;99.90
38380;DHT22;38377;47.418;18.882;2023-12-28T07:38:45;1.20;99.90
38380;DHT22;38377;47.418;18.882;2023-12-28T07:41:11;1.30;99.90
38380;DHT22;38377;47.418;18.882;2023-12-28T07:43:37;1.40;99.90
38380;DHT22;38377;47.418;18.882;2023-12-28T07:46:03;1.50;99.90
38380;DHT22;38377;47.418;18.882;2023-12-28T07:48:30;1.60;99.90
38380;DHT22;38377;47.418;18.882;2023-12-28T07:51:03;1.70;99.90
38380;DHT22;38377;47.418;18.882;2023-12-28T07:53:29;1.80;99.90
38380;DHT22;38377;47.418;18.882;2023-12-28T07:55:54;2.00;99.90
38380;DHT22;38377;47.418;18.882;2023-12-28T07:58:21;2.10;99.90
38380;DHT22;38377;47.418;18.882;2023-12-28T08:00:47;2.20;99.90
38380;DHT22;38377;47.418;18.882;2023-12-28T08:03:22;2.40;99.90
38380;DHT22;38377;47.418;18.882;2023-12-28T08:05:48;2.50;99.90
38380;DHT22;38377;47.418;18.882;2023-12-28T08:08:13;2.60;99.90
38380;DHT22;38377;47.418;18.882;2023-12-28T08:10:45;2.80;99.90
38380;DHT22;38377;47.418;18.882;2023-12-28T08:13:10;2.90;99.90
38380;DHT22;38377;47.418;18.882;2023-12-28T08:16:23;3.00;99.90
38380;DHT22;38377;47.418;18.882;2023-12-28T08:19:15;3.10;99.90
38380;DHT22;38377;47.418;18.882;2023-12-28T08:21:41;3.30;99.90
38380;DHT22;38377;47.418;18.882;2023-12-28T08:24:06;3.40;99.90
38380;DHT22;38377;47.418;18.882;2023-12-28T08:26:32;3.60;99.90
38380;DHT22;38377;47.418;18.882;2023-12-28T08:29:10;3.70;99.90
38380;DHT22;38377;47.418;18.882;2023-12-28T08:31:36;3.80;99.90
38380;DHT22;38377;47.418;18.882;2023-12-28T08:34:05;3.90;99.90
38380;DHT22;38377;47.418;18.882;2023-12-28T08:36:31;4.20;99.90
38380;DHT22;38377;47.418;18.882;2023-12-28T08:38:56;4.40;99.90
38380;DHT22;38377;47.418;18.882;2023-12-28T08:41:23;4.60;99.90
38380;DHT22;38377;47.418;18.882;2023-12-28T08:43:52;4.70;99.90
38380;DHT22;38377;47.418;18.882;2023-12-28T08:46:21;4.80;99.90
38380;DHT22;38377;47.418;18.882;2023-12-28T08:48:48;5.00;99.90
38380;DHT22;38377;47.418;18.882;2023-12-28T08:51:13;5.10;99.90
38380;DHT22;38377;47.418;18.882;2023-12-28T08:53:40;5.20;99.90
38380;DHT22;38377;47.418;18.882;2023-12-28T08:56:32;5.30;99.90
38380;DHT22;38377;47.418;18.882;2023-12-28T08:59:00;5.30;99.90
38380;DHT22;38377;47.418;18.882;2023-12-28T09:01:26;5.30;99.90
38380;DHT22;38377;47.418;18.882;2023-12-28T09:03:55;5.40;99.90
38380;DHT22;38377;47.418;18.882;2023-12-28T09:06:21;5.50;99.90
38380;DHT22;38377;47.418;18.882;2023-12-28T09:08:49;5.50;99.90
38380;DHT22;38377;47.418;18.882;2023-12-28T09:11:16;5.50;99.90
38380;DHT22;38377;47.418;18.882;2023-12-28T09:13:41;5.60;99.90
38380;DHT22;38377;47.418;18.882;2023-12-28T09:16:09;5.70;99.90
38380;DHT22;38377;47.418;18.882;2023-12-28T09:18:35;5.70;99.90
38380;DHT22;38377;47.418;18.882;2023-12-28T09:21:04;5.80;99.90
38380;DHT22;38377;47.418;18.882;2023-12-28T09:23:31;5.80;99.90
38380;DHT22;38377;47.418;18.882;2023-12-28T09:25:59;5.90;99.90
38380;DHT22;38377;47.418;18.882;2023-12-28T09:28:24;6.00;99.90
38380;DHT22;38377;47.418;18.882;2023-12-28T09:30:50;6.10;99.90
38380;DHT22;38377;47.418;18.882;2023-12-28T09:33:16;6.20;99.90
38380;DHT22;38377;47.418;18.882;2023-12-28T09:35:42;6.20;99.90
38380;DHT22;38377;47.418;18.882;2023-12-28T09:38:07;6.20;99.90
38380;DHT22;38377;47.418;18.882;2023-12-28T09:40:36;6.30;99.90
38380;DHT22;38377;47.418;18.882;2023-12-28T09:43:24;6.40;99.90
38380;DHT22;38377;47.418;18.882;2023-12-28T09:45:51;6.40;99.90
38380;DHT22;38377;47.418;18.882;2023-12-28T09:48:18;6.40;99.90
38380;DHT22;38377;47.418;18.882;2023-12-28T09:50:53;6.40;99.90
38380;DHT22;38377;47.418;18.882;2023-12-28T09:53:26;6.50;99.90
38380;DHT22;38377;47.418;18.882;2023-12-28T09:55:52;6.60;99.90
38380;DHT22;38377;47.418;18.882;2023-12-28T09:58:22;6.70;99.90
38380;DHT22;38377;47.418;18.882;2023-12-28T10:00:49;6.70;99.90
38380;DHT22;38377;47.418;18.882;2023-12-28T10:03:15;6.80;99.90
38380;DHT22;38377;47.418;18.882;2023-12-28T10:05:42;6.90;99.90
38380;DHT22;38377;47.418;18.882;2023-12-28T10:08:08;7.00;99.90
38380;DHT22;38377;47.418;18.882;2023-12-28T10:10:39;7.00;99.90
38380;DHT22;38377;47.418;18.882;2023-12-28T10:13:10;7.10;99.90
38380;DHT22;38377;47.418;18.882;2023-12-28T10:15:37;7.20;99.90
38380;DHT22;38377;47.418;18.882;2023-12-28T10:18:05;7.20;99.90
38380;DHT22;38377;47.418;18.882;2023-12-28T10:20:32;7.20;99.90
38380;DHT22;38377;47.418;18.882;2023-12-28T10:22:58;7.20;99.90
38380;DHT22;38377;47.418;18.882;2023-12-28T10:25:27;7.20;99.90
38380;DHT22;38377;47.418;18.882;2023-12-28T10:27:53;7.20;99.90
38380;DHT22;38377;47.418;18.882;2023-12-28T10:30:20;7.30;99.90
38380;DHT22;38377;47.418;18.882;2023-12-28T10:32:46;7.30;99.90
38380;DHT22;38377;47.418;18.882;2023-12-28T10:35:12;7.30;99.90
38380;DHT22;38377;47.418;18.882;2023-12-28T10:37:40;7.30;99.90
38380;DHT22;38377;47.418;18.882;2023-12-28T10:40:13;7.30;99.90
38380;DHT22;38377;47.418;18.882;2023-12-28T10:42:52;7.40;99.90
38380;DHT22;38377;47.418;18.882;2023-12-28T10:45:20;7.40;99.90
38380;DHT22;38377;47.418;18.882;2023-12-28T10:47:58;7.50;99.90
38380;DHT22;38377;47.418;18.882;2023-12-28T10:50:27;7.50;99.90
38380;DHT22;38377;47.418;18.882;2023-12-28T10:52:56;7.50;99.90
38380;DHT22;38377;47.418;18.882;2023-12-28T10:55:34;7.50;99.90
38380;DHT22;38377;47.418;18.882;2023-12-28T10:58:12;7.60;99.90
38380;DHT22;38377;47.418;18.882;2023-12-28T11:00:54;7.60;99.90
38380;DHT22;38377;47.418;18.882;2023-12-28T11:03:26;7.70;99.90
38380;DHT22;38377;47.418;18.882;2023-12-28T11:05:53;7.70;99.90
38380;DHT22;38377;47.418;18.882;2023-12-28T11:08:20;7.70;99.90
38380;DHT22;38377;47.418;18.882;2023-12-28T11:10:48;7.70;99.90
38380;DHT22;38377;47.418;18.882;2023-12-28T11:13:17;7.80;99.90
38380;DHT22;38377;47.418;18.882;2023-12-28T11:15:47;7.80;99.90
38380;DHT22;38377;47.418;18.882;2023-12-28T11:18:15;7.80;99.90
38380;DHT22;38377;47.418;18.882;2023-12-28T11:20:42;7.80;99.90
38380;DHT22;38377;47.418;18.882;2023-12-28T11:23:08;7.90;99.90
38380;DHT22;38377;47.418;18.882;2023-12-28T11:25:35;8.00;99.90
38380;DHT22;38377;47.418;18.882;2023-12-28T11:28:09;7.90;99.90
38380;DHT22;38377;47.418;18.882;2023-12-28T11:30:35;7.90;99.90
38380;DHT22;38377;47.418;18.882;2023-12-28T11:33:02;7.80;99.90
38380;DHT22;38377;47.418;18.882;2023-12-28T11:35:39;7.80;99.90
38380;DHT22;38377;47.418;18.882;2023-12-28T11:38:08;7.80;99.90
38380;DHT22;38377;47.418;18.882;2023-12-28T11:40:45;7.90;99.90
38380;DHT22;38377;47.418;18.882;2023-12-28T11:43:19;7.80;99.90
38380;DHT22;38377;47.418;18.882;2023-12-28T11:45:54;7.80;99.90
38380;DHT22;38377;47.418;18.882;2023-12-28T11:48:27;7.80;99.90
38380;DHT22;38377;47.418;18.882;2023-12-28T11:50:57;7.80;99.90
38380;DHT22;38377;47.418;18.882;2023-12-28T11:53:33;7.90;99.90
38380;DHT22;38377;47.418;18.882;2023-12-28T11:56:02;7.90;99.90
38380;DHT22;38377;47.418;18.882;2023-12-28T11:58:28;7.90;99.90
38380;DHT22;38377;47.418;18.882;2023-12-28T12:00:54;7.90;99.90
38380;DHT22;38377;47.418;18.882;2023-12-28T12:03:19;7.90;99.90
38380;DHT22;38377;47.418;18.882;2023-12-28T12:05:45;8.00;99.90
38380;DHT22;38377;47.418;18.882;2023-12-28T12:08:17;7.90;99.90
38380;DHT22;38377;47.418;18.882;2023-12-28T12:10:44;7.90;99.90
38380;DHT22;38377;47.418;18.882;2023-12-28T12:13:16;7.90;99.90
38380;DHT22;38377;47.418;18.882;2023-12-28T12:15:52;7.90;99.90
38380;DHT22;38377;47.418;18.882;2023-12-28T12:18:25;8.00;99.90
38380;DHT22;38377;47.418;18.882;2023-12-28T12:20:54;8.00;99.90
38380;DHT22;38377;47.418;18.882;2023-12-28T12:23:19;8.00;99.90
38380;DHT22;38377;47.418;18.882;2023-12-28T12:25:47;8.00;99.90
38380;DHT22;38377;47.418;18.882;2023-12-28T12:28:27;8.00;99.90
38380;DHT22;38377;47.418;18.882;2023-12-28T12:30:59;8.00;99.90
38380;DHT22;38377;47.418;18.882;2023-12-28T12:33:48;8.00;99.90
38380;DHT22;38377;47.418;18.882;2023-12-28T12:38:56;8.00;99.90
38380;DHT22;38377;47.418;18.882;2023-12-28T12:41:22;8.00;99.90
38380;DHT22;38377;47.418;18.882;2023-12-28T12:43:48;8.10;99.90
38380;DHT22;38377;47.418;18.882;2023-12-28T12:46:17;8.10;99.90
38380;DHT22;38377;47.418;18.882;2023-12-28T12:49:05;8.10;99.90
38380;DHT22;38377;47.418;18.882;2023-12-28T12:51:38;8.10;99.90
38380;DHT22;38377;47.418;18.882;2023-12-28T12:54:09;8.10;99.90
38380;DHT22;38377;47.418;18.882;2023-12-28T12:56:37;8.10;99.90
38380;DHT22;38377;47.418;18.882;2023-12-28T12:59:05;8.00;99.90
38380;DHT22;38377;47.418;18.882;2023-12-28T13:01:45;8.00;99.90
38380;DHT22;38377;47.418;18.882;2023-12-28T13:04:32;8.00;99.90
38380;DHT22;38377;47.418;18.882;2023-12-28T13:06:59;8.00;99.90
38380;DHT22;38377;47.418;18.882;2023-12-28T13:09:32;8.00;99.90
38380;DHT22;38377;47.418;18.882;2023-12-28T13:12:02;8.00;99.90
38380;DHT22;38377;47.418;18.882;2023-12-28T13:14:29;8.00;99.90
38380;DHT22;38377;47.418;18.882;2023-12-28T13:16:55;8.00;99.90
38380;DHT22;38377;47.418;18.882;2023-12-28T13:19:44;7.90;99.90
38380;DHT22;38377;47.418;18.882;2023-12-28T13:22:29;7.90;99.90
38380;DHT22;38377;47.418;18.882;2023-12-28T13:25:25;8.00;99.90
38380;DHT22;38377;47.418;18.882;2023-12-28T13:40:12;7.90;99.90
38380;DHT22;38377;47.418;18.882;2023-12-28T13:53:33;7.70;99.90
38380;DHT22;38377;47.418;18.882;2023-12-28T13:56:06;7.70;99.90
38380;DHT22;38377;47.418;18.882;2023-12-28T13:58:32;7.70;99.90
38380;DHT22;38377;47.418;18.882;2023-12-28T14:01:06;7.70;99.90
38380;DHT22;38377;47.418;18.882;2023-12-28T14:03:32;7.70;99.90
38380;DHT22;38377;47.418;18.882;2023-12-28T14:05:57;7.70;99.90
38380;DHT22;38377;47.418;18.882;2023-12-28T14:08:24;7.60;99.90
38380;DHT22;38377;47.418;18.882;2023-12-28T14:11:02;7.60;99.90
38380;DHT22;38377;47.418;18.882;2023-12-28T14:13:28;7.50;99.90
38380;DHT22;38377;47.418;18.882;2023-12-28T14:15:56;7.50;99.90
38380;DHT22;38377;47.418;18.882;2023-12-28T14:18:25;7.50;99.90
38380;DHT22;38377;47.418;18.882;2023-12-28T14:21:02;7.50;99.90
38380;DHT22;38377;47.418;18.882;2023-12-28T14:23:45;7.40;99.90
38380;DHT22;38377;47.418;18.882;2023-12-28T14:26:18;7.40;99.90
38380;DHT22;38377;47.418;18.882;2023-12-28T14:28:46;7.30;99.90
38380;DHT22;38377;47.418;18.882;2023-12-28T14:31:12;7.20;99.90
38380;DHT22;38377;47.418;18.882;2023-12-28T14:33:39;7.10;99.90
38380;DHT22;38377;47.418;18.882;2023-12-28T14:36:23;7.00;99.90
38380;DHT22;38377;47.418;18.882;2023-12-28T14:51:02;6.90;99.90
38380;DHT22;38377;47.418;18.882;2023-12-28T14:53:28;6.20;99.90
38380;DHT22;38377;47.418;18.882;2023-12-28T14:55:53;6.00;99.90
38380;DHT22;38377;47.418;18.882;2023-12-28T14:58:22;5.90;99.90
38380;DHT22;38377;47.418;18.882;2023-12-28T15:00:57;5.80;99.90
38380;DHT22;38377;47.418;18.882;2023-12-28T15:03:23;5.60;99.90
38380;DHT22;38377;47.418;18.882;2023-12-28T15:05:52;5.50;99.90
38380;DHT22;38377;47.418;18.882;2023-12-28T15:08:23;5.30;99.90
38380;DHT22;38377;47.418;18.882;2023-12-28T15:10:49;5.20;99.90
38380;DHT22;38377;47.418;18.882;2023-12-28T15:13:15;5.00;99.90
38380;DHT22;38377;47.418;18.882;2023-12-28T15:15:45;4.90;99.90
38380;DHT22;38377;47.418;18.882;2023-12-28T15:18:23;4.70;99.90
38380;DHT22;38377;47.418;18.882;2023-12-28T15:20:49;4.60;99.90
38380;DHT22;38377;47.418;18.882;2023-12-28T15:23:15;4.40;99.90
38380;DHT22;38377;47.418;18.882;2023-12-28T15:25:43;4.30;99.90
38380;DHT22;38377;47.418;18.882;2023-12-28T15:28:08;4.20;99.90
38380;DHT22;38377;47.418;18.882;2023-12-28T15:30:35;4.10;99.90
38380;DHT22;38377;47.418;18.882;2023-12-28T15:33:01;3.90;99.90
38380;DHT22;38377;47.418;18.882;2023-12-28T15:35:27;3.70;99.90
38380;DHT22;38377;47.418;18.882;2023-12-28T15:37:53;3.70;99.90
38380;DHT22;38377;47.418;18.882;2023-12-28T15:40:20;3.70;99.90
38380;DHT22;38377;47.418;18.882;2023-12-28T15:42:46;3.60;99.90
38380;DHT22;38377;47.418;18.882;2023-12-28T15:45:11;3.50;99.90
38380;DHT22;38377;47.418;18.882;2023-12-28T15:47:37;3.40;99.90
38380;DHT22;38377;47.418;18.882;2023-12-28T15:50:03;3.30;99.90
38380;DHT22;38377;47.418;18.882;2023-12-28T15:52:57;3.30;99.90
38380;DHT22;38377;47.418;18.882;2023-12-28T15:56:23;3.30;99.90
38380;DHT22;38377;47.418;18.882;2023-12-28T15:59:11;3.10;99.90
38380;DHT22;38377;47.418;18.882;2023-12-28T16:04:37;3.00;99.90
38380;DHT22;38377;47.418;18.882;2023-12-28T16:07:10;2.80;99.90
38380;DHT22;38377;47.418;18.882;2023-12-28T16:12:35;2.60;99.90
38380;DHT22;38377;47.418;18.882;2023-12-28T16:15:12;2.40;99.90
38380;DHT22;38377;47.418;18.882;2023-12-28T16:20:56;2.30;99.90
38380;DHT22;38377;47.418;18.882;2023-12-28T16:23:27;2.20;99.90
38380;DHT22;38377;47.418;18.882;2023-12-28T16:26:14;2.10;99.90